sensor_id;sensor_type;location;lat;lon;timestamp;temperature;humidity
8099;DHT22;4092;47.876;9.372;2022-10-01T00:00:05;7.00;99.90
8099;DHT22;4092;47.876;9.372;2022-10-01T00:02:36;7.00;99.90
8099;DHT22;4092;47.876;9.372;2022-10-01T00:05:05;7.00;99.90
8099;DHT22;4092;47.876;9.372;2022-10-01T00:07:37;6.90;99.90
8099;DHT22;4092;47.876;9.372;2022-10-01T00:10:05;7.00;99.90
8099;DHT22;4092;47.876;9.372;2022-10-01T00:12:32;7.10;99.90
8099;DHT22;4092;47.876;9.372;2022-10-01T00:14:59;7.10;99.90
8099;DHT22;4092;47.876;9.372;2022-10-01T00:17:27;7.00;99.90
8099;DHT22;4092;47.876;9.372;2022-10-01T00:19:54;7.00;99.90
8099;DHT22;4092;47.876;9.372;2022-10-01T00:22:22;7.10;99.90
8099;DHT22;4092;47.876;9.372;2022-10-01T00:24:49;7.10;99.90
8099;DHT22;4092;47.876;9.372;2022-10-01T00:27:16;7.20;99.90
8099;DHT22;4092;47.876;9.372;2022-10-01T00:29:43;7.20;99.90
8099;DHT22;4092;47.876;9.372;2022-10-01T00:32:10;7.20;99.90
8099;DHT22;4092;47.876;9.372;2022-10-01T00:34:38;7.30;99.90
8099;DHT22;4092;47.876;9.372;2022-10-01T00:37:05;7.40;99.90
8099;DHT22;4092;47.876;9.372;2022-10-01T00:39:36;7.40;99.90
8099;DHT22;4092;47.876;9.372;2022-10-01T00:42:15;7.40;99.90
8099;DHT22;4092;47.876;9.372;2022-10-01T00:44:44;7.40;99.90
8099;DHT22;4092;47.876;9.372;2022-10-01T00:47:25;7.40;99.90
8099;DHT22;4092;47.876;9.372;2022-10-01T00:49:58;7.40;99.90
8099;DHT22;4092;47.876;9.372;2022-10-01T00:52:30;7.40;99.90
8099;DHT22;4092;47.876;9.372;2022-10-01T00:55:03;7.40;99.90
8099;DHT22;4092;47.876;9.372;2022-10-01T00:57:31;7.40;99.90
8099;DHT22;4092;47.876;9.372;2022-10-01T01:00:03;7.50;99.90
8099;DHT22;4092;47.876;9.372;2022-10-01T01:02:31;7.60;99.90
8099;DHT22;4092;47.876;9.372;2022-10-01T01:04:58;7.60;99.90
8099;DHT22;4092;47.876;9.372;2022-10-01T01:07:26;7.60;99.90
8099;DHT22;4092;47.876;9.372;2022-10-01T01:09:54;7.60;99.90
8099;DHT22;4092;47.876;9.372;2022-10-01T01:12:32;7.60;99.90
8099;DHT22;4092;47.876;9.372;2022-10-01T01:15:10;7.60;99.90
8099;DHT22;4092;47.876;9.372;2022-10-01T01:17:52;7.60;99.90
8099;DHT22;4092;47.876;9.372;2022-10-01T01:26:19;7.70;99.90
8099;DHT22;4092;47.876;9.372;2022-10-01T01:28:53;7.70;99.90
8099;DHT22;4092;47.876;9.372;2022-10-01T01:31:30;7.60;99.90
8099;DHT22;4092;47.876;9.372;2022-10-01T01:33:58;7.60;99.90
8099;DHT22;4092;47.876;9.372;2022-10-01T01:36:29;7.70;99.90
8099;DHT22;4092;47.876;9.372;2022-10-01T01:39:01;7.70;99.90
8099;DHT22;4092;47.876;9.372;2022-10-01T01:41:32;7.70;99.90
8099;DHT22;4092;47.876;9.372;2022-10-01T01:44:05;7.80;99.90
8099;DHT22;4092;47.876;9.372;2022-10-01T01:46:36;7.80;99.90
8099;DHT22;4092;47.876;9.372;2022-10-01T01:49:05;7.80;99.90
8099;DHT22;4092;47.876;9.372;2022-10-01T01:51:37;7.90;99.90
8099;DHT22;4092;47.876;9.372;2022-10-01T01:54:07;7.90;99.90
8099;DHT22;4092;47.876;9.372;2022-10-01T01:56:34;7.90;99.90
8099;DHT22;4092;47.876;9.372;2022-10-01T01:59:04;7.90;99.90
8099;DHT22;4092;47.876;9.372;2022-10-01T02:01:34;7.80;99.90
8099;DHT22;4092;47.876;9.372;2022-10-01T02:04:06;7.80;99.90
8099;DHT22;4092;47.876;9.372;2022-10-01T02:06:51;7.80;99.90
8099;DHT22;4092;47.876;9.372;2022-10-01T02:09:29;7.80;99.90
8099;DHT22;4092;47.876;9.372;2022-10-01T02:12:06;7.90;99.90
8099;DHT22;4092;47.876;9.372;2022-10-01T02:14:39;7.80;99.90
8099;DHT22;4092;47.876;9.372;2022-10-01T02:17:15;7.80;99.90
8099;DHT22;4092;47.876;9.372;2022-10-01T02:19:49;7.80;99.90
8099;DHT22;4092;47.876;9.372;2022-10-01T02:22:24;7.80;99.90
8099;DHT22;4092;47.876;9.372;2022-10-01T02:24:58;7.90;99.90
8099;DHT22;4092;47.876;9.372;2022-10-01T02:27:31;7.90;99.90
8099;DHT22;4092;47.876;9.372;2022-10-01T02:30:07;7.90;99.90
8099;DHT22;4092;47.876;9.372;2022-10-01T02:32:36;7.90;99.90
8099;DHT22;4092;47.876;9.372;2022-10-01T02:35:06;7.90;99.90
8099;DHT22;4092;47.876;9.372;2022-10-01T02:37:35;7.90;99.90
8099;DHT22;4092;47.876;9.372;2022-10-01T02:40:06;7.80;99.90
8099;DHT22;4092;47.876;9.372;2022-10-01T02:42:35;7.90;99.90
8099;DHT22;4092;47.876;9.372;2022-10-01T02:45:05;8.00;99.90
8099;DHT22;4092;47.876;9.372;2022-10-01T02:47:36;8.00;99.90
8099;DHT22;4092;47.876;9.372;2022-10-01T02:50:06;8.00;99.90
8099;DHT22;4092;47.876;9.372;2022-10-01T02:52:39;8.00;99.90
8099;DHT22;4092;47.876;9.372;2022-10-01T02:55:11;8.00;99.90
8099;DHT22;4092;47.876;9.372;2022-10-01T02:57:39;8.00;99.90
8099;DHT22;4092;47.876;9.372;2022-10-01T03:00:10;8.00;99.90
8099;DHT22;4092;47.876;9.372;2022-10-01T03:02:38;8.00;99.90
8099;DHT22;4092;47.876;9.372;2022-10-01T03:05:06;7.90;99.90
8099;DHT22;4092;47.876;9.372;2022-10-01T03:07:34;7.90;99.90
8099;DHT22;4092;47.876;9.372;2022-10-01T03:10:01;7.90;99.90
8099;DHT22;4092;47.876;9.372;2022-10-01T03:12:28;8.00;99.90
8099;DHT22;4092;47.876;9.372;2022-10-01T03:14:55;7.90;99.90
8099;DHT22;4092;47.876;9.372;2022-10-01T03:17:24;8.00;99.90
8099;DHT22;4092;47.876;9.372;2022-10-01T03:19:51;8.00;99.90
8099;DHT22;4092;47.876;9.372;2022-10-01T03:22:19;8.00;99.90
8099;DHT22;4092;47.876;9.372;2022-10-01T03:24:47;8.00;99.90
8099;DHT22;4092;47.876;9.372;2022-10-01T03:27:14;8.00;99.90
8099;DHT22;4092;47.876;9.372;2022-10-01T03:29:42;8.00;99.90
8099;DHT22;4092;47.876;9.372;2022-10-01T03:32:09;8.00;99.90
8099;DHT22;4092;47.876;9.372;2022-10-01T03:34:38;8.00;99.90
8099;DHT22;4092;47.876;9.372;2022-10-01T03:37:05;8.00;99.90
8099;DHT22;4092;47.876;9.372;2022-10-01T03:39:32;8.00;99.90
8099;DHT22;4092;47.876;9.372;2022-10-01T03:41:59;8.00;99.90
8099;DHT22;4092;47.876;9.372;2022-10-01T03:44:26;8.00;99.90
8099;DHT22;4092;47.876;9.372;2022-10-01T03:46:54;8.00;99.90
8099;DHT22;4092;47.876;9.372;2022-10-01T03:49:21;8.00;99.90
8099;DHT22;4092;47.876;9.372;2022-10-01T03:51:49;8.00;99.90
8099;DHT22;4092;47.876;9.372;2022-10-01T03:54:16;8.00;99.90
8099;DHT22;4092;47.876;9.372;2022-10-01T03:56:44;8.00;99.90
8099;DHT22;4092;47.876;9.372;2022-10-01T03:59:13;8.00;99.90
8099;DHT22;4092;47.876;9.372;2022-10-01T04:01:40;8.00;99.90
8099;DHT22;4092;47.876;9.372;2022-10-01T04:04:07;7.90;99.90
8099;DHT22;4092;47.876;9.372;2022-10-01T04:06:34;7.90;99.90
8099;DHT22;4092;47.876;9.372;2022-10-01T04:09:03;7.90;99.90
8099;DHT22;4092;47.876;9.372;2022-10-01T04:11:30;7.90;99.90
8099;DHT22;4092;47.876;9.372;2022-10-01T04:13:57;7.90;99.90
8099;DHT22;4092;47.876;9.372;2022-10-01T04:16:24;7.80;99.90
8099;DHT22;4092;47.876;9.372;2022-10-01T04:18:51;7.90;99.90
8099;DHT22;4092;47.876;9.372;2022-10-01T04:21:18;7.80;99.90
8099;DHT22;4092;47.876;9.372;2022-10-01T04:23:45;7.90;99.90
8099;DHT22;4092;47.876;9.372;2022-10-01T04:26:15;7.90;99.90
8099;DHT22;4092;47.876;9.372;2022-10-01T04:28:43;7.90;99.90
8099;DHT22;4092;47.876;9.372;2022-10-01T04:31:11;7.80;99.90
8099;DHT22;4092;47.876;9.372;2022-10-01T04:33:51;7.80;99.90
8099;DHT22;4092;47.876;9.372;2022-10-01T04:36:18;7.80;99.90
8099;DHT22;4092;47.876;9.372;2022-10-01T04:38:46;7.80;99.90
8099;DHT22;4092;47.876;9.372;2022-10-01T04:41:13;7.80;99.90
8099;DHT22;4092;47.876;9.372;2022-10-01T04:43:41;7.80;99.90
8099;DHT22;4092;47.876;9.372;2022-10-01T04:46:08;7.80;99.90
8099;DHT22;4092;47.876;9.372;2022-10-01T04:48:35;7.90;99.90
8099;DHT22;4092;47.876;9.372;2022-10-01T04:51:02;7.90;99.90
8099;DHT22;4092;47.876;9.372;2022-10-01T04:53:29;7.90;99.90
8099;DHT22;4092;47.876;9.372;2022-10-01T04:55:56;7.90;99.90
8099;DHT22;4092;47.876;9.372;2022-10-01T04:58:24;7.90;99.90
8099;DHT22;4092;47.876;9.372;2022-10-01T05:00:52;8.00;99.90
8099;DHT22;4092;47.876;9.372;2022-10-01T05:03:19;8.00;99.90
8099;DHT22;4092;47.876;9.372;2022-10-01T05:05:46;8.00;99.90
8099;DHT22;4092;47.876;9.372;2022-10-01T05:08:14;8.00;99.90
8099;DHT22;4092;47.876;9.372;2022-10-01T05:10:41;8.00;99.90
8099;DHT22;4092;47.876;9.372;2022-10-01T05:13:08;8.00;99.90
8099;DHT22;4092;47.876;9.372;2022-10-01T05:15:35;8.00;99.90
8099;DHT22;4092;47.876;9.372;2022-10-01T05:18:04;8.00;99.90
8099;DHT22;4092;47.876;9.372;2022-10-01T05:20:32;8.10;99.90
8099;DHT22;4092;47.876;9.372;2022-10-01T05:22:59;8.10;99.90
8099;DHT22;4092;47.876;9.372;2022-10-01T05:25:26;8.00;99.90
8099;DHT22;4092;47.876;9.372;2022-10-01T05:27:59;8.00;99.90
8099;DHT22;4092;47.876;9.372;2022-10-01T05:30:30;8.00;99.90
8099;DHT22;4092;47.876;9.372;2022-10-01T05:32:59;8.00;99.90
8099;DHT22;4092;47.876;9.372;2022-10-01T05:35:28;7.90;99.90
8099;DHT22;4092;47.876;9.372;2022-10-01T05:37:56;7.90;99.90
8099;DHT22;4092;47.876;9.372;2022-10-01T05:40:24;7.90;99.90
8099;DHT22;4092;47.876;9.372;2022-10-01T05:42:53;7.90;99.90
8099;DHT22;4092;47.876;9.372;2022-10-01T05:45:21;7.90;99.90
8099;DHT22;4092;47.876;9.372;2022-10-01T05:47:55;7.90;99.90
8099;DHT22;4092;47.876;9.372;2022-10-01T05:50:23;7.90;99.90
8099;DHT22;4092;47.876;9.372;2022-10-01T05:52:53;7.90;99.90
8099;DHT22;4092;47.876;9.372;2022-10-01T05:55:21;7.80;99.90
8099;DHT22;4092;47.876;9.372;2022-10-01T05:57:58;7.90;99.90
8099;DHT22;4092;47.876;9.372;2022-10-01T06:00:27;7.90;99.90
8099;DHT22;4092;47.876;9.372;2022-10-01T06:02:56;7.90;99.90
8099;DHT22;4092;47.876;9.372;2022-10-01T06:05:26;7.90;99.90
8099;DHT22;4092;47.876;9.372;2022-10-01T06:07:56;7.90;99.90
8099;DHT22;4092;47.876;9.372;2022-10-01T06:10:26;7.80;99.90
8099;DHT22;4092;47.876;9.372;2022-10-01T06:12:58;7.90;99.90
8099;DHT22;4092;47.876;9.372;2022-10-01T06:15:39;7.90;99.90
8099;DHT22;4092;47.876;9.372;2022-10-01T06:18:36;7.90;99.90
8099;DHT22;4092;47.876;9.372;2022-10-01T06:21:13;7.90;99.90
8099;DHT22;4092;47.876;9.372;2022-10-01T06:23:42;7.90;99.90
8099;DHT22;4092;47.876;9.372;2022-10-01T06:26:09;7.90;99.90
8099;DHT22;4092;47.876;9.372;2022-10-01T06:28:36;7.90;99.90
8099;DHT22;4092;47.876;9.372;2022-10-01T06:31:03;7.90;99.90
8099;DHT22;4092;47.876;9.372;2022-10-01T06:33:31;7.90;99.90
8099;DHT22;4092;47.876;9.372;2022-10-01T06:35:58;7.90;99.90
8099;DHT22;4092;47.876;9.372;2022-10-01T06:38:25;7.90;99.90
8099;DHT22;4092;47.876;9.372;2022-10-01T06:40:55;7.90;99.90
8099;DHT22;4092;47.876;9.372;2022-10-01T06:43:23;7.90;99.90
8099;DHT22;4092;47.876;9.372;2022-10-01T06:45:51;8.00;99.90
8099;DHT22;4092;47.876;9.372;2022-10-01T06:48:19;7.90;99.90
8099;DHT22;4092;47.876;9.372;2022-10-01T06:50:47;7.90;99.90
8099;DHT22;4092;47.876;9.372;2022-10-01T06:53:17;7.90;99.90
8099;DHT22;4092;47.876;9.372;2022-10-01T06:55:44;7.90;99.90
8099;DHT22;4092;47.876;9.372;2022-10-01T06:58:15;7.90;99.90
8099;DHT22;4092;47.876;9.372;2022-10-01T07:00:43;7.90;99.90
8099;DHT22;4092;47.876;9.372;2022-10-01T07:03:13;7.90;99.90
8099;DHT22;4092;47.876;9.372;2022-10-01T07:05:41;7.90;99.90
8099;DHT22;4092;47.876;9.372;2022-10-01T07:08:08;7.90;99.90
8099;DHT22;4092;47.876;9.372;2022-10-01T07:10:35;7.90;99.90
8099;DHT22;4092;47.876;9.372;2022-10-01T07:13:06;7.90;99.90
8099;DHT22;4092;47.876;9.372;2022-10-01T07:15:36;7.90;99.90
8099;DHT22;4092;47.876;9.372;2022-10-01T07:18:04;7.90;99.90
8099;DHT22;4092;47.876;9.372;2022-10-01T07:20:33;7.90;99.90
8099;DHT22;4092;47.876;9.372;2022-10-01T07:23:05;7.90;99.90
8099;DHT22;4092;47.876;9.372;2022-10-01T07:25:32;7.90;99.90
8099;DHT22;4092;47.876;9.372;2022-10-01T07:28:02;7.90;99.90
8099;DHT22;4092;47.876;9.372;2022-10-01T07:30:30;8.00;99.90
8099;DHT22;4092;47.876;9.372;2022-10-01T07:32:59;8.00;99.90
8099;DHT22;4092;47.876;9.372;2022-10-01T07:35:26;8.10;99.90
8099;DHT22;4092;47.876;9.372;2022-10-01T07:37:53;8.00;99.90
8099;DHT22;4092;47.876;9.372;2022-10-01T07:40:21;8.10;99.90
8099;DHT22;4092;47.876;9.372;2022-10-01T07:42:52;8.10;99.90
8099;DHT22;4092;47.876;9.372;2022-10-01T07:45:20;8.10;99.90
8099;DHT22;4092;47.876;9.372;2022-10-01T07:47:52;8.20;99.90
8099;DHT22;4092;47.876;9.372;2022-10-01T07:50:21;8.20;99.90
8099;DHT22;4092;47.876;9.372;2022-10-01T07:52:52;8.20;99.90
8099;DHT22;4092;47.876;9.372;2022-10-01T07:55:20;8.20;99.90
8099;DHT22;4092;47.876;9.372;2022-10-01T07:57:51;8.20;99.90
8099;DHT22;4092;47.876;9.372;2022-10-01T08:00:19;8.20;99.90
8099;DHT22;4092;47.876;9.372;2022-10-01T08:02:47;8.20;99.90
8099;DHT22;4092;47.876;9.372;2022-10-01T08:05:15;8.20;99.90
8099;DHT22;4092;47.876;9.372;2022-10-01T08:07:48;8.10;99.90
8099;DHT22;4092;47.876;9.372;2022-10-01T08:10:17;8.10;99.90
8099;DHT22;4092;47.876;9.372;2022-10-01T08:12:45;8.10;99.90
8099;DHT22;4092;47.876;9.372;2022-10-01T08:15:14;8.10;99.90
8099;DHT22;4092;47.876;9.372;2022-10-01T08:17:42;8.00;99.90
8099;DHT22;4092;47.876;9.372;2022-10-01T08:20:11;8.00;99.90
8099;DHT22;4092;47.876;9.372;2022-10-01T08:22:38;8.00;99.90
8099;DHT22;4092;47.876;9.372;2022-10-01T08:25:11;8.00;99.90
8099;DHT22;4092;47.876;9.372;2022-10-01T08:27:38;7.90;99.90
8099;DHT22;4092;47.876;9.372;2022-10-01T08:30:07;7.90;99.90
8099;DHT22;4092;47.876;9.372;2022-10-01T08:32:34;7.90;99.90
8099;DHT22;4092;47.876;9.372;2022-10-01T08:35:01;8.00;99.90
8099;DHT22;4092;47.876;9.372;2022-10-01T08:37:29;8.00;99.90
8099;DHT22;4092;47.876;9.372;2022-10-01T08:39:56;7.90;99.90
8099;DHT22;4092;47.876;9.372;2022-10-01T08:45:28;7.90;99.90
8099;DHT22;4092;47.876;9.372;2022-10-01T08:48:00;7.90;99.90
8099;DHT22;4092;47.876;9.372;2022-10-01T08:50:37;7.80;99.90
8099;DHT22;4092;47.876;9.372;2022-10-01T08:53:13;7.80;99.90
8099;DHT22;4092;47.876;9.372;2022-10-01T08:55:43;7.80;99.90
8099;DHT22;4092;47.876;9.372;2022-10-01T08:58:20;7.90;99.90
8099;DHT22;4092;47.876;9.372;2022-10-01T09:00:49;7.80;99.90
8099;DHT22;4092;47.876;9.372;2022-10-01T09:03:17;7.80;99.90
8099;DHT22;4092;47.876;9.372;2022-10-01T09:06:09;7.90;99.90
8099;DHT22;4092;47.876;9.372;2022-10-01T09:08:53;7.90;99.90
8099;DHT22;4092;47.876;9.372;2022-10-01T09:11:32;8.00;99.90
8099;DHT22;4092;47.876;9.372;2022-10-01T09:14:24;7.90;99.90
8099;DHT22;4092;47.876;9.372;2022-10-01T09:17:04;7.90;99.90
8099;DHT22;4092;47.876;9.372;2022-10-01T09:19:58;7.90;99.90
8099;DHT22;4092;47.876;9.372;2022-10-01T09:22:36;8.00;99.90
8099;DHT22;4092;47.876;9.372;2022-10-01T09:25:11;8.00;99.90
8099;DHT22;4092;47.876;9.372;2022-10-01T09:27:39;8.00;99.90
8099;DHT22;4092;47.876;9.372;2022-10-01T09:30:12;8.00;99.90
8099;DHT22;4092;47.876;9.372;2022-10-01T09:32:44;8.10;99.90
8099;DHT22;4092;47.876;9.372;2022-10-01T09:35:25;8.10;99.90
8099;DHT22;4092;47.876;9.372;2022-10-01T09:37:56;8.20;99.90
8099;DHT22;4092;47.876;9.372;2022-10-01T09:40:32;8.20;99.90
8099;DHT22;4092;47.876;9.372;2022-10-01T09:43:01;8.20;99.90
8099;DHT22;4092;47.876;9.372;2022-10-01T09:45:30;8.10;99.90
8099;DHT22;4092;47.876;9.372;2022-10-01T09:48:02;8.10;99.90
8099;DHT22;4092;47.876;9.372;2022-10-01T09:50:37;8.10;99.90
8099;DHT22;4092;47.876;9.372;2022-10-01T09:53:12;8.10;99.90
8099;DHT22;4092;47.876;9.372;2022-10-01T09:55:43;8.10;99.90
8099;DHT22;4092;47.876;9.372;2022-10-01T09:58:13;8.10;99.90
8099;DHT22;4092;47.876;9.372;2022-10-01T10:00:44;8.10;99.90
8099;DHT22;4092;47.876;9.372;2022-10-01T10:03:21;8.10;99.90
8099;DHT22;4092;47.876;9.372;2022-10-01T10:05:48;8.10;99.90
8099;DHT22;4092;47.876;9.372;2022-10-01T10:08:22;8.10;99.90
8099;DHT22;4092;47.876;9.372;2022-10-01T10:10:50;8.10;99.90
8099;DHT22;4092;47.876;9.372;2022-10-01T10:13:24;8.10;99.90
8099;DHT22;4092;47.876;9.372;2022-10-01T10:15:59;8.10;99.90
8099;DHT22;4092;47.876;9.372;2022-10-01T10:18:28;8.10;99.90
8099;DHT22;4092;47.876;9.372;2022-10-01T10:21:01;8.10;99.90
8099;DHT22;4092;47.876;9.372;2022-10-01T10:23:32;8.10;99.90
8099;DHT22;4092;47.876;9.372;2022-10-01T10:26:00;8.10;99.90
8099;DHT22;4092;47.876;9.372;2022-10-01T10:28:37;8.10;99.90
8099;DHT22;4092;47.876;9.372;2022-10-01T10:31:10;8.20;99.90
8099;DHT22;4092;47.876;9.372;2022-10-01T10:33:45;8.20;99.90
8099;DHT22;4092;47.876;9.372;2022-10-01T10:36:14;8.20;99.90
8099;DHT22;4092;47.876;9.372;2022-10-01T10:38:45;8.20;99.90
8099;DHT22;4092;47.876;9.372;2022-10-01T10:41:19;8.30;99.90
8099;DHT22;4092;47.876;9.372;2022-10-01T10:44:01;8.30;99.90
8099;DHT22;4092;47.876;9.372;2022-10-01T10:46:49;8.40;99.90
8099;DHT22;4092;47.876;9.372;2022-10-01T10:49:20;8.50;99.90
8099;DHT22;4092;47.876;9.372;2022-10-01T10:51:57;8.60;99.90
8099;DHT22;4092;47.876;9.372;2022-10-01T10:54:30;8.60;99.90
8099;DHT22;4092;47.876;9.372;2022-10-01T10:57:02;8.60;99.90
8099;DHT22;4092;47.876;9.372;2022-10-01T10:59:32;8.60;99.90
8099;DHT22;4092;47.876;9.372;2022-10-01T11:02:03;8.60;99.90
8099;DHT22;4092;47.876;9.372;2022-10-01T11:04:41;8.70;99.90
8099;DHT22;4092;47.876;9.372;2022-10-01T11:07:10;8.70;99.90
8099;DHT22;4092;47.876;9.372;2022-10-01T11:09:54;8.70;99.90
8099;DHT22;4092;47.876;9.372;2022-10-01T11:12:36;8.70;99.90
8099;DHT22;4092;47.876;9.372;2022-10-01T11:15:24;8.70;99.90
8099;DHT22;4092;47.876;9.372;2022-10-01T11:18:08;8.80;99.90
8099;DHT22;4092;47.876;9.372;2022-10-01T11:20:44;8.80;99.90
8099;DHT22;4092;47.876;9.372;2022-10-01T11:23:35;8.80;99.90
8099;DHT22;4092;47.876;9.372;2022-10-01T11:26:13;8.80;99.90
8099;DHT22;4092;47.876;9.372;2022-10-01T11:28:53;8.80;99.90
8099;DHT22;4092;47.876;9.372;2022-10-01T11:31:30;8.80;99.90
8099;DHT22;4092;47.876;9.372;2022-10-01T11:34:17;8.70;99.90
8099;DHT22;4092;47.876;9.372;2022-10-01T11:36:53;8.70;99.90
8099;DHT22;4092;47.876;9.372;2022-10-01T11:39:26;8.70;99.90
8099;DHT22;4092;47.876;9.372;2022-10-01T11:41:59;8.70;99.90
8099;DHT22;4092;47.876;9.372;2022-10-01T11:44:30;8.70;99.90
8099;DHT22;4092;47.876;9.372;2022-10-01T11:47:00;8.70;99.90
8099;DHT22;4092;47.876;9.372;2022-10-01T11:49:45;8.70;99.90
8099;DHT22;4092;47.876;9.372;2022-10-01T11:52:23;8.80;99.90
8099;DHT22;4092;47.876;9.372;2022-10-01T11:54:59;8.80;99.90
8099;DHT22;4092;47.876;9.372;2022-10-01T11:57:51;8.80;99.90
8099;DHT22;4092;47.876;9.372;2022-10-01T12:00:39;8.80;99.90
8099;DHT22;4092;47.876;9.372;2022-10-01T12:03:11;8.70;99.90
8099;DHT22;4092;47.876;9.372;2022-10-01T12:05:43;8.80;99.90
8099;DHT22;4092;47.876;9.372;2022-10-01T12:08:15;8.80;99.90
8099;DHT22;4092;47.876;9.372;2022-10-01T12:10:50;8.80;99.90
8099;DHT22;4092;47.876;9.372;2022-10-01T12:13:24;8.80;99.90
8099;DHT22;4092;47.876;9.372;2022-10-01T12:15:56;8.90;99.90
8099;DHT22;4092;47.876;9.372;2022-10-01T12:18:28;8.80;99.90
8099;DHT22;4092;47.876;9.372;2022-10-01T12:21:00;8.80;99.90
8099;DHT22;4092;47.876;9.372;2022-10-01T12:23:29;8.90;99.90
8099;DHT22;4092;47.876;9.372;2022-10-01T12:26:04;8.90;99.90
8099;DHT22;4092;47.876;9.372;2022-10-01T12:28:36;8.80;99.90
8099;DHT22;4092;47.876;9.372;2022-10-01T12:31:11;8.90;99.90
8099;DHT22;4092;47.876;9.372;2022-10-01T12:33:55;8.90;99.90
8099;DHT22;4092;47.876;9.372;2022-10-01T12:36:33;9.10;99.90
8099;DHT22;4092;47.876;9.372;2022-10-01T12:39:15;9.20;99.90
8099;DHT22;4092;47.876;9.372;2022-10-01T12:41:53;9.20;99.90
8099;DHT22;4092;47.876;9.372;2022-10-01T12:44:34;9.20;99.90
8099;DHT22;4092;47.876;9.372;2022-10-01T12:47:12;9.30;99.90
8099;DHT22;4092;47.876;9.372;2022-10-01T12:49:47;9.30;99.90
8099;DHT22;4092;47.876;9.372;2022-10-01T12:52:28;9.30;99.90
8099;DHT22;4092;47.876;9.372;2022-10-01T12:55:19;9.40;99.90
8099;DHT22;4092;47.876;9.372;2022-10-01T12:58:00;9.40;99.90
8099;DHT22;4092;47.876;9.372;2022-10-01T13:00:32;9.40;99.90
8099;DHT22;4092;47.876;9.372;2022-10-01T13:06:18;9.40;99.90
8099;DHT22;4092;47.876;9.372;2022-10-01T13:09:00;9.40;99.90
8099;DHT22;4092;47.876;9.372;2022-10-01T13:11:40;9.40;99.90
8099;DHT22;4092;47.876;9.372;2022-10-01T13:14:12;9.40;99.90
8099;DHT22;4092;47.876;9.372;2022-10-01T13:16:45;9.40;99.90
8099;DHT22;4092;47.876;9.372;2022-10-01T13:19:17;9.40;99.90
8099;DHT22;4092;47.876;9.372;2022-10-01T13:21:56;9.50;99.90
8099;DHT22;4092;47.876;9.372;2022-10-01T13:24:31;9.50;99.90
8099;DHT22;4092;47.876;9.372;2022-10-01T13:27:04;9.50;99.90
8099;DHT22;4092;47.876;9.372;2022-10-01T13:29:44;9.50;99.90
8099;DHT22;4092;47.876;9.372;2022-10-01T13:32:32;9.60;99.90
8099;DHT22;4092;47.876;9.372;2022-10-01T13:35:01;9.60;99.90
8099;DHT22;4092;47.876;9.372;2022-10-01T13:37:34;9.50;99.90
8099;DHT22;4092;47.876;9.372;2022-10-01T13:40:04;9.50;99.90
8099;DHT22;4092;47.876;9.372;2022-10-01T13:42:47;9.50;99.90
8099;DHT22;4092;47.876;9.372;2022-10-01T13:45:25;9.50;99.90
8099;DHT22;4092;47.876;9.372;2022-10-01T13:48:04;9.50;99.90
8099;DHT22;4092;47.876;9.372;2022-10-01T13:50:33;9.50;99.90
8099;DHT22;4092;47.876;9.372;2022-10-01T13:53:12;9.50;99.90
8099;DHT22;4092;47.876;9.372;2022-10-01T13:55:43;9.50;99.90
8099;DHT22;4092;47.876;9.372;2022-10-01T13:58:23;9.50;99.90
8099;DHT22;4092;47.876;9.372;2022-10-01T14:00:52;9.50;99.90
8099;DHT22;4092;47.876;9.372;2022-10-01T14:03:33;9.50;99.90
8099;DHT22;4092;47.876;9.372;2022-10-01T14:06:06;9.50;99.90
8099;DHT22;4092;47.876;9.372;2022-10-01T14:08:42;9.50;99.90
8099;DHT22;4092;47.876;9.372;2022-10-01T14:11:14;9.50;99.90
8099;DHT22;4092;47.876;9.372;2022-10-01T14:14:08;9.50;99.90
8099;DHT22;4092;47.876;9.372;2022-10-01T14:16:54;9.60;99.90
8099;DHT22;4092;47.876;9.372;2022-10-01T14:19:24;9.50;99.90
8099;DHT22;4092;47.876;9.372;2022-10-01T14:22:10;9.50;99.90
8099;DHT22;4092;47.876;9.372;2022-10-01T14:28:07;9.50;99.90
8099;DHT22;4092;47.876;9.372;2022-10-01T14:30:48;9.50;99.90
8099;DHT22;4092;47.876;9.372;2022-10-01T14:33:43;9.40;99.90
8099;DHT22;4092;47.876;9.372;2022-10-01T14:36:16;9.40;99.90
8099;DHT22;4092;47.876;9.372;2022-10-01T14:38:43;9.40;99.90
8099;DHT22;4092;47.876;9.372;2022-10-01T14:41:16;9.40;99.90
8099;DHT22;4092;47.876;9.372;2022-10-01T14:43:46;9.40;99.90
8099;DHT22;4092;47.876;9.372;2022-10-01T14:46:15;9.30;99.90
8099;DHT22;4092;47.876;9.372;2022-10-01T14:48:43;9.30;99.90
8099;DHT22;4092;47.876;9.372;2022-10-01T14:51:23;9.30;99.90
8099;DHT22;4092;47.876;9.372;2022-10-01T14:53:51;9.30;99.90
8099;DHT22;4092;47.876;9.372;2022-10-01T14:56:19;9.30;99.90
8099;DHT22;4092;47.876;9.372;2022-10-01T14:58:55;9.30;99.90
8099;DHT22;4092;47.876;9.372;2022-10-01T15:01:23;9.30;99.90
8099;DHT22;4092;47.876;9.372;2022-10-01T15:03:52;9.30;99.90
8099;DHT22;4092;47.876;9.372;2022-10-01T15:06:21;9.30;99.90
8099;DHT22;4092;47.876;9.372;2022-10-01T15:08:49;9.40;99.90
8099;DHT22;4092;47.876;9.372;2022-10-01T15:11:22;9.40;99.90
8099;DHT22;4092;47.876;9.372;2022-10-01T15:13:53;9.40;99.90
8099;DHT22;4092;47.876;9.372;2022-10-01T15:16:22;9.40;99.90
8099;DHT22;4092;47.876;9.372;2022-10-01T15:18:52;9.50;99.90
8099;DHT22;4092;47.876;9.372;2022-10-01T15:21:27;9.50;99.90
8099;DHT22;4092;47.876;9.372;2022-10-01T15:23:56;9.50;99.90
8099;DHT22;4092;47.876;9.372;2022-10-01T15:26:25;9.50;99.90
8099;DHT22;4092;47.876;9.372;2022-10-01T15:29:02;9.50;99.90
8099;DHT22;4092;47.876;9.372;2022-10-01T15:31:30;9.60;99.90
8099;DHT22;4092;47.876;9.372;2022-10-01T15:33:59;9.60;99.90
8099;DHT22;4092;47.876;9.372;2022-10-01T15:36:27;9.60;99.90
8099;DHT22;4092;47.876;9.372;2022-10-01T15:38:54;9.70;99.90
8099;DHT22;4092;47.876;9.372;2022-10-01T15:41:25;9.70;99.90
8099;DHT22;4092;47.876;9.372;2022-10-01T15:43:56;9.70;99.90
8099;DHT22;4092;47.876;9.372;2022-10-01T15:46:39;9.70;99.90
8099;DHT22;4092;47.876;9.372;2022-10-01T15:49:14;9.80;99.90
8099;DHT22;4092;47.876;9.372;2022-10-01T15:51:51;9.80;99.90
8099;DHT22;4092;47.876;9.372;2022-10-01T15:54:38;9.80;99.90
8099;DHT22;4092;47.876;9.372;2022-10-01T15:57:06;9.80;99.90
8099;DHT22;4092;47.876;9.372;2022-10-01T15:59:35;9.90;99.90
8099;DHT22;4092;47.876;9.372;2022-10-01T16:02:16;9.90;99.90
8099;DHT22;4092;47.876;9.372;2022-10-01T16:04:44;9.80;99.90
8099;DHT22;4092;47.876;9.372;2022-10-01T16:07:19;9.80;99.90
8099;DHT22;4092;47.876;9.372;2022-10-01T16:09:57;9.80;99.90
8099;DHT22;4092;47.876;9.372;2022-10-01T16:12:28;9.90;99.90
8099;DHT22;4092;47.876;9.372;2022-10-01T16:14:57;9.80;99.90
8099;DHT22;4092;47.876;9.372;2022-10-01T16:17:32;9.80;99.90
8099;DHT22;4092;47.876;9.372;2022-10-01T16:20:01;9.80;99.90
8099;DHT22;4092;47.876;9.372;2022-10-01T16:22:50;9.80;99.90
8099;DHT22;4092;47.876;9.372;2022-10-01T16:25:30;9.80;99.90
8099;DHT22;4092;47.876;9.372;2022-10-01T16:28:02;9.80;99.90
8099;DHT22;4092;47.876;9.372;2022-10-01T16:30:30;9.80;99.90
8099;DHT22;4092;47.876;9.372;2022-10-01T16:33:01;9.90;99.90
8099;DHT22;4092;47.876;9.372;2022-10-01T16:35:31;9.90;99.90
8099;DHT22;4092;47.876;9.372;2022-10-01T16:38:00;9.90;99.90
8099;DHT22;4092;47.876;9.372;2022-10-01T16:40:33;9.90;99.90
8099;DHT22;4092;47.876;9.372;2022-10-01T16:43:04;9.90;99.90
8099;DHT22;4092;47.876;9.372;2022-10-01T16:45:35;9.90;99.90
8099;DHT22;4092;47.876;9.372;2022-10-01T16:48:11;9.90;99.90
8099;DHT22;4092;47.876;9.372;2022-10-01T16:50:40;10.00;99.90
8099;DHT22;4092;47.876;9.372;2022-10-01T16:53:11;9.90;99.90
8099;DHT22;4092;47.876;9.372;2022-10-01T16:55:38;10.00;99.90
8099;DHT22;4092;47.876;9.372;2022-10-01T16:58:06;10.00;99.90
8099;DHT22;4092;47.876;9.372;2022-10-01T17:00:38;10.00;99.90
8099;DHT22;4092;47.876;9.372;2022-10-01T17:03:14;10.00;99.90